sensor_id;sensor_type;location;lat;lon;timestamp;pressure;altitude;pressure_sealevel;temperature;humidity
21863;BME280;11096;51.338;12.524;2023-08-21T00:01:01;100689.28;;;23.00;73.79
21863;BME280;11096;51.338;12.524;2023-08-21T00:03:27;100695.53;;;23.07;73.60
21863;BME280;11096;51.338;12.524;2023-08-21T00:05:52;100692.91;;;22.99;73.63
21863;BME280;11096;51.338;12.524;2023-08-21T00:08:18;100688.78;;;22.88;74.06
21863;BME280;11096;51.338;12.524;2023-08-21T00:10:43;100691.28;;;22.89;74.18
21863;BME280;11096;51.338;12.524;2023-08-21T00:13:08;100680.06;;;22.79;73.56
21863;BME280;11096;51.338;12.524;2023-08-21T00:15:34;100681.91;;;22.70;74.13
21863;BME280;11096;51.338;12.524;2023-08-21T00:17:59;100677.09;;;22.74;74.47
21863;BME280;11096;51.338;12.524;2023-08-21T00:20:26;100677.78;;;22.68;74.92
21863;BME280;11096;51.338;12.524;2023-08-21T00:22:51;100676.16;;;22.67;75.45
21863;BME280;11096;51.338;12.524;2023-08-21T00:25:17;100678.25;;;22.80;75.15
21863;BME280;11096;51.338;12.524;2023-08-21T00:27:42;100687.63;;;22.90;74.16
21863;BME280;11096;51.338;12.524;2023-08-21T00:30:08;100667.25;;;22.99;73.73
21863;BME280;11096;51.338;12.524;2023-08-21T00:32:33;100680.31;;;22.92;73.64
21863;BME280;11096;51.338;12.524;2023-08-21T00:34:59;100672.59;;;22.83;74.03
21863;BME280;11096;51.338;12.524;2023-08-21T00:37:24;100670.50;;;22.70;74.33
21863;BME280;11096;51.338;12.524;2023-08-21T00:39:50;100670.19;;;22.65;74.87
21863;BME280;11096;51.338;12.524;2023-08-21T00:42:15;100674.22;;;22.53;75.69
21863;BME280;11096;51.338;12.524;2023-08-21T00:44:40;100672.06;;;22.48;76.31
21863;BME280;11096;51.338;12.524;2023-08-21T00:47:06;100675.69;;;22.47;76.89
21863;BME280;11096;51.338;12.524;2023-08-21T00:49:31;100676.22;;;22.42;77.15
21863;BME280;11096;51.338;12.524;2023-08-21T00:51:58;100677.88;;;22.43;77.55
21863;BME280;11096;51.338;12.524;2023-08-21T00:54:24;100678.38;;;22.39;77.74
21863;BME280;11096;51.338;12.524;2023-08-21T00:56:49;100686.16;;;22.32;77.75
21863;BME280;11096;51.338;12.524;2023-08-21T00:59:18;100681.25;;;21.96;79.12
21863;BME280;11096;51.338;12.524;2023-08-21T01:01:44;100684.69;;;22.05;78.46
21863;BME280;11096;51.338;12.524;2023-08-21T01:04:10;100679.41;;;22.13;79.38
21863;BME280;11096;51.338;12.524;2023-08-21T01:06:35;100689.50;;;22.26;78.27
21863;BME280;11096;51.338;12.524;2023-08-21T01:11:48;100691.66;;;22.31;77.23
21863;BME280;11096;51.338;12.524;2023-08-21T01:14:39;100692.63;;;22.38;77.51
21863;BME280;11096;51.338;12.524;2023-08-21T01:17:08;100695.00;;;22.72;75.37
21863;BME280;11096;51.338;12.524;2023-08-21T01:19:41;100694.06;;;22.48;76.49
21863;BME280;11096;51.338;12.524;2023-08-21T01:22:07;100689.97;;;22.38;77.21
21863;BME280;11096;51.338;12.524;2023-08-21T01:24:32;100698.09;;;22.28;78.24
21863;BME280;11096;51.338;12.524;2023-08-21T01:26:58;100701.09;;;22.25;78.19
21863;BME280;11096;51.338;12.524;2023-08-21T01:29:24;100700.75;;;22.20;77.87
21863;BME280;11096;51.338;12.524;2023-08-21T01:32:01;100703.75;;;22.25;78.17
21863;BME280;11096;51.338;12.524;2023-08-21T01:34:28;100704.38;;;22.19;78.29
21863;BME280;11096;51.338;12.524;2023-08-21T01:36:55;100705.19;;;22.19;77.52
21863;BME280;11096;51.338;12.524;2023-08-21T01:39:21;100709.53;;;22.20;77.07
21863;BME280;11096;51.338;12.524;2023-08-21T01:41:47;100701.06;;;22.17;77.40
21863;BME280;11096;51.338;12.524;2023-08-21T01:44:12;100695.44;;;22.12;77.42
21863;BME280;11096;51.338;12.524;2023-08-21T01:46:37;100695.13;;;22.06;77.75
21863;BME280;11096;51.338;12.524;2023-08-21T01:49:03;100701.09;;;22.00;78.04
21863;BME280;11096;51.338;12.524;2023-08-21T01:51:28;100703.06;;;21.98;78.85
21863;BME280;11096;51.338;12.524;2023-08-21T01:53:53;100693.47;;;22.05;78.53
21863;BME280;11096;51.338;12.524;2023-08-21T01:56:19;100699.25;;;22.09;78.10
21863;BME280;11096;51.338;12.524;2023-08-21T01:58:44;100697.94;;;21.89;79.78
21863;BME280;11096;51.338;12.524;2023-08-21T02:01:09;100701.06;;;21.68;80.50
21863;BME280;11096;51.338;12.524;2023-08-21T02:03:35;100708.03;;;21.69;80.51
21863;BME280;11096;51.338;12.524;2023-08-21T02:06:01;100706.88;;;21.71;81.03
21863;BME280;11096;51.338;12.524;2023-08-21T02:08:33;100708.38;;;21.74;81.05
21863;BME280;11096;51.338;12.524;2023-08-21T02:10:58;100712.66;;;21.75;80.74
21863;BME280;11096;51.338;12.524;2023-08-21T02:13:24;100710.50;;;21.70;80.07
21863;BME280;11096;51.338;12.524;2023-08-21T02:15:49;100702.25;;;22.06;78.63
21863;BME280;11096;51.338;12.524;2023-08-21T02:18:15;100704.88;;;22.06;78.42
21863;BME280;11096;51.338;12.524;2023-08-21T02:20:41;100698.91;;;22.12;78.64
21863;BME280;11096;51.338;12.524;2023-08-21T02:23:06;100705.06;;;22.13;78.34
21863;BME280;11096;51.338;12.524;2023-08-21T02:25:32;100701.88;;;22.17;77.95
21863;BME280;11096;51.338;12.524;2023-08-21T02:27:57;100705.88;;;21.80;79.03
21863;BME280;11096;51.338;12.524;2023-08-21T02:30:23;100703.38;;;21.62;80.55
21863;BME280;11096;51.338;12.524;2023-08-21T02:32:52;100703.38;;;21.54;81.19
21863;BME280;11096;51.338;12.524;2023-08-21T02:35:18;100705.03;;;21.47;81.91
21863;BME280;11096;51.338;12.524;2023-08-21T02:37:43;100707.84;;;21.54;81.19
21863;BME280;11096;51.338;12.524;2023-08-21T02:40:09;100701.72;;;21.53;80.66
21863;BME280;11096;51.338;12.524;2023-08-21T02:42:34;100691.47;;;21.50;80.54
21863;BME280;11096;51.338;12.524;2023-08-21T02:45:00;100693.78;;;21.53;80.10
21863;BME280;11096;51.338;12.524;2023-08-21T02:47:29;100691.66;;;21.49;80.57
21863;BME280;11096;51.338;12.524;2023-08-21T02:49:54;100695.72;;;21.35;81.08
21863;BME280;11096;51.338;12.524;2023-08-21T02:52:19;100694.38;;;21.31;81.90
21863;BME280;11096;51.338;12.524;2023-08-21T02:54:45;100687.69;;;21.53;81.02
21863;BME280;11096;51.338;12.524;2023-08-21T02:57:10;100684.69;;;21.48;82.89
21863;BME280;11096;51.338;12.524;2023-08-21T02:59:35;100686.53;;;21.72;81.94
21863;BME280;11096;51.338;12.524;2023-08-21T03:02:01;100692.63;;;21.56;82.70
21863;BME280;11096;51.338;12.524;2023-08-21T03:04:26;100682.78;;;21.15;84.71
21863;BME280;11096;51.338;12.524;2023-08-21T03:06:51;100689.66;;;21.42;84.96
21863;BME280;11096;51.338;12.524;2023-08-21T03:09:17;100685.81;;;21.37;84.43
21863;BME280;11096;51.338;12.524;2023-08-21T03:11:42;100685.75;;;21.12;86.38
21863;BME280;11096;51.338;12.524;2023-08-21T03:14:07;100688.31;;;20.88;87.45
21863;BME280;11096;51.338;12.524;2023-08-21T03:16:33;100691.69;;;21.06;87.90
21863;BME280;11096;51.338;12.524;2023-08-21T03:18:59;100686.78;;;21.19;86.52
21863;BME280;11096;51.338;12.524;2023-08-21T03:21:26;100685.44;;;21.15;85.79
21863;BME280;11096;51.338;12.524;2023-08-21T03:23:54;100681.78;;;21.16;86.45
21863;BME280;11096;51.338;12.524;2023-08-21T03:26:20;100676.34;;;21.10;86.14
21863;BME280;11096;51.338;12.524;2023-08-21T03:28:45;100681.44;;;21.03;85.99
21863;BME280;11096;51.338;12.524;2023-08-21T03:31:10;100674.19;;;21.05;86.38
21863;BME280;11096;51.338;12.524;2023-08-21T03:33:36;100674.81;;;20.99;86.44
21863;BME280;11096;51.338;12.524;2023-08-21T03:36:01;100681.09;;;20.98;86.45
21863;BME280;11096;51.338;12.524;2023-08-21T03:38:27;100688.84;;;20.57;88.22
21863;BME280;11096;51.338;12.524;2023-08-21T03:40:52;100690.25;;;20.43;90.39
21863;BME280;11096;51.338;12.524;2023-08-21T03:43:17;100692.47;;;20.56;91.18
21863;BME280;11096;51.338;12.524;2023-08-21T03:45:43;100695.63;;;20.59;90.73
21863;BME280;11096;51.338;12.524;2023-08-21T03:48:08;100692.41;;;20.82;89.44
21863;BME280;11096;51.338;12.524;2023-08-21T03:50:33;100693.06;;;20.76;89.15
21863;BME280;11096;51.338;12.524;2023-08-21T03:52:59;100694.72;;;20.51;89.39
21863;BME280;11096;51.338;12.524;2023-08-21T03:55:24;100704.09;;;20.71;89.26
21863;BME280;11096;51.338;12.524;2023-08-21T03:57:49;100703.03;;;20.56;89.05
21863;BME280;11096;51.338;12.524;2023-08-21T04:00:15;100700.97;;;20.50;89.52
21863;BME280;11096;51.338;12.524;2023-08-21T04:02:40;100701.63;;;20.44;88.75
21863;BME280;11096;51.338;12.524;2023-08-21T04:05:06;100701.66;;;20.52;88.74
21863;BME280;11096;51.338;12.524;2023-08-21T04:07:31;100706.56;;;20.47;88.09
21863;BME280;11096;51.338;12.524;2023-08-21T04:09:57;100708.88;;;20.42;87.75
21863;BME280;11096;51.338;12.524;2023-08-21T04:12:22;100704.56;;;20.67;87.75
21863;BME280;11096;51.338;12.524;2023-08-21T04:14:47;100709.72;;;20.76;85.69
21863;BME280;11096;51.338;12.524;2023-08-21T04:17:13;100710.13;;;20.55;85.78
21863;BME280;11096;51.338;12.524;2023-08-21T04:19:38;100716.59;;;20.61;86.83
21863;BME280;11096;51.338;12.524;2023-08-21T04:22:06;100721.53;;;20.56;86.01
21863;BME280;11096;51.338;12.524;2023-08-21T04:24:31;100719.44;;;20.68;86.13
21863;BME280;11096;51.338;12.524;2023-08-21T04:26:57;100720.75;;;20.72;85.38
21863;BME280;11096;51.338;12.524;2023-08-21T04:29:22;100714.97;;;20.68;85.67
21863;BME280;11096;51.338;12.524;2023-08-21T04:31:48;100720.16;;;20.78;85.63
21863;BME280;11096;51.338;12.524;2023-08-21T04:34:13;100725.34;;;21.04;84.79
21863;BME280;11096;51.338;12.524;2023-08-21T04:36:39;100727.34;;;21.02;84.14
21863;BME280;11096;51.338;12.524;2023-08-21T04:39:04;100737.13;;;21.10;84.85
21863;BME280;11096;51.338;12.524;2023-08-21T04:41:30;100734.34;;;21.19;84.63
21863;BME280;11096;51.338;12.524;2023-08-21T04:43:55;100745.28;;;21.33;83.54
21863;BME280;11096;51.338;12.524;2023-08-21T04:46:20;100738.06;;;21.43;82.70
21863;BME280;11096;51.338;12.524;2023-08-21T04:48:46;100731.13;;;21.50;82.11
21863;BME280;11096;51.338;12.524;2023-08-21T04:51:12;100729.66;;;21.56;81.35
21863;BME280;11096;51.338;12.524;2023-08-21T04:53:38;100728.81;;;21.47;81.73
21863;BME280;11096;51.338;12.524;2023-08-21T04:56:03;100723.19;;;21.42;81.62
21863;BME280;11096;51.338;12.524;2023-08-21T04:58:29;100723.47;;;21.31;81.80
21863;BME280;11096;51.338;12.524;2023-08-21T05:00:54;100734.84;;;21.23;82.80
21863;BME280;11096;51.338;12.524;2023-08-21T05:03:19;100734.34;;;21.19;84.11
21863;BME280;11096;51.338;12.524;2023-08-21T05:05:55;100734.84;;;21.23;84.44
21863;BME280;11096;51.338;12.524;2023-08-21T05:08:24;100727.44;;;21.27;85.34
21863;BME280;11096;51.338;12.524;2023-08-21T05:10:57;100732.22;;;21.31;85.30
21863;BME280;11096;51.338;12.524;2023-08-21T05:13:23;100730.41;;;21.32;85.78
21863;BME280;11096;51.338;12.524;2023-08-21T05:15:52;100727.81;;;21.40;85.39
21863;BME280;11096;51.338;12.524;2023-08-21T05:18:19;100727.16;;;21.46;84.87
21863;BME280;11096;51.338;12.524;2023-08-21T05:20:44;100734.31;;;21.62;84.85
21863;BME280;11096;51.338;12.524;2023-08-21T05:23:09;100732.66;;;21.77;83.34
21863;BME280;11096;51.338;12.524;2023-08-21T05:25:35;100739.28;;;21.90;82.24
21863;BME280;11096;51.338;12.524;2023-08-21T05:28:00;100744.56;;;21.98;81.00
21863;BME280;11096;51.338;12.524;2023-08-21T05:30:26;100748.69;;;22.17;80.88
21863;BME280;11096;51.338;12.524;2023-08-21T05:32:51;100752.69;;;22.37;80.39
21863;BME280;11096;51.338;12.524;2023-08-21T05:35:16;100751.66;;;22.63;79.33
21863;BME280;11096;51.338;12.524;2023-08-21T05:37:42;100750.56;;;22.88;78.13
21863;BME280;11096;51.338;12.524;2023-08-21T05:40:07;100747.53;;;23.08;77.22
21863;BME280;11096;51.338;12.524;2023-08-21T05:42:33;100753.25;;;23.28;76.16
21863;BME280;11096;51.338;12.524;2023-08-21T05:44:58;100762.94;;;23.44;75.68
21863;BME280;11096;51.338;12.524;2023-08-21T05:47:23;100754.69;;;23.62;75.27
21863;BME280;11096;51.338;12.524;2023-08-21T05:49:50;100755.53;;;23.62;75.00
21863;BME280;11096;51.338;12.524;2023-08-21T05:52:15;100742.44;;;23.61;73.84
21863;BME280;11096;51.338;12.524;2023-08-21T05:54:41;100749.53;;;23.68;74.19
21863;BME280;11096;51.338;12.524;2023-08-21T05:57:06;100746.47;;;23.79;73.76
21863;BME280;11096;51.338;12.524;2023-08-21T05:59:32;100742.84;;;23.72;73.36
21863;BME280;11096;51.338;12.524;2023-08-21T06:01:58;100749.31;;;23.70;73.33
21863;BME280;11096;51.338;12.524;2023-08-21T06:04:24;100753.81;;;23.69;73.65
21863;BME280;11096;51.338;12.524;2023-08-21T06:06:50;100757.50;;;23.91;73.00
21863;BME280;11096;51.338;12.524;2023-08-21T06:09:15;100764.53;;;24.07;72.99
21863;BME280;11096;51.338;12.524;2023-08-21T06:11:42;100764.44;;;24.15;72.54
21863;BME280;11096;51.338;12.524;2023-08-21T06:14:08;100763.28;;;24.33;71.50
21863;BME280;11096;51.338;12.524;2023-08-21T06:16:33;100758.72;;;24.41;70.95
21863;BME280;11096;51.338;12.524;2023-08-21T06:18:58;100755.06;;;24.42;70.67
21863;BME280;11096;51.338;12.524;2023-08-21T06:21:24;100750.28;;;24.38;71.24
21863;BME280;11096;51.338;12.524;2023-08-21T06:23:49;100758.41;;;24.59;71.13
21863;BME280;11096;51.338;12.524;2023-08-21T06:26:15;100755.00;;;24.95;69.68
21863;BME280;11096;51.338;12.524;2023-08-21T06:28:40;100751.91;;;25.43;68.56
21863;BME280;11096;51.338;12.524;2023-08-21T06:31:05;100753.66;;;25.72;67.40
21863;BME280;11096;51.338;12.524;2023-08-21T06:33:33;100756.81;;;25.82;66.65
21863;BME280;11096;51.338;12.524;2023-08-21T06:35:59;100765.81;;;26.03;65.43
21863;BME280;11096;51.338;12.524;2023-08-21T06:38:24;100756.28;;;26.15;64.88
21863;BME280;11096;51.338;12.524;2023-08-21T06:40:50;100757.41;;;26.27;64.70
21863;BME280;11096;51.338;12.524;2023-08-21T06:43:16;100759.63;;;26.52;64.86
21863;BME280;11096;51.338;12.524;2023-08-21T06:45:42;100756.47;;;26.63;64.29
21863;BME280;11096;51.338;12.524;2023-08-21T06:48:07;100762.59;;;26.64;64.57
21863;BME280;11096;51.338;12.524;2023-08-21T06:50:33;100767.13;;;26.63;64.16
21863;BME280;11096;51.338;12.524;2023-08-21T06:52:58;100763.88;;;26.74;63.64
21863;BME280;11096;51.338;12.524;2023-08-21T06:55:23;100774.66;;;26.88;62.13
21863;BME280;11096;51.338;12.524;2023-08-21T06:57:49;100770.75;;;26.90;62.60
21863;BME280;11096;51.338;12.524;2023-08-21T07:00:14;100777.09;;;26.89;62.14
21863;BME280;11096;51.338;12.524;2023-08-21T07:02:39;100769.53;;;26.99;61.64
21863;BME280;11096;51.338;12.524;2023-08-21T07:05:05;100769.91;;;26.90;61.85
21863;BME280;11096;51.338;12.524;2023-08-21T07:07:30;100778.25;;;26.73;62.50
21863;BME280;11096;51.338;12.524;2023-08-21T07:09:56;100778.53;;;26.85;63.27
21863;BME280;11096;51.338;12.524;2023-08-21T07:12:22;100783.19;;;26.76;62.75
21863;BME280;11096;51.338;12.524;2023-08-21T07:14:47;100783.94;;;26.70;62.86
21863;BME280;11096;51.338;12.524;2023-08-21T07:17:13;100779.41;;;26.64;63.10
21863;BME280;11096;51.338;12.524;2023-08-21T07:19:38;100779.00;;;26.61;62.24
21863;BME280;11096;51.338;12.524;2023-08-21T07:22:03;100781.44;;;26.62;61.92
21863;BME280;11096;51.338;12.524;2023-08-21T07:24:29;100788.56;;;26.90;61.90
21863;BME280;11096;51.338;12.524;2023-08-21T07:26:54;100783.47;;;27.30;60.84
21863;BME280;11096;51.338;12.524;2023-08-21T07:29:20;100782.94;;;27.68;60.40
21863;BME280;11096;51.338;12.524;2023-08-21T07:31:45;100786.22;;;27.63;59.98
21863;BME280;11096;51.338;12.524;2023-08-21T07:34:10;100788.63;;;27.51;60.46
21863;BME280;11096;51.338;12.524;2023-08-21T07:36:36;100791.56;;;27.63;59.61
21863;BME280;11096;51.338;12.524;2023-08-21T07:39:01;100792.97;;;27.52;59.66
21863;BME280;11096;51.338;12.524;2023-08-21T07:41:27;100807.31;;;27.51;61.05
21863;BME280;11096;51.338;12.524;2023-08-21T07:43:52;100811.00;;;27.37;62.12
21863;BME280;11096;51.338;12.524;2023-08-21T07:46:17;100823.31;;;27.38;61.11
21863;BME280;11096;51.338;12.524;2023-08-21T07:48:44;100819.38;;;27.34;61.14
21863;BME280;11096;51.338;12.524;2023-08-21T07:51:09;100822.09;;;27.40;60.67
21863;BME280;11096;51.338;12.524;2023-08-21T07:53:35;100817.53;;;27.34;61.32
21863;BME280;11096;51.338;12.524;2023-08-21T07:56:02;100826.34;;;27.28;62.57
21863;BME280;11096;51.338;12.524;2023-08-21T07:58:29;100827.75;;;27.24;61.84
21863;BME280;11096;51.338;12.524;2023-08-21T08:00:54;100824.94;;;27.39;61.54
21863;BME280;11096;51.338;12.524;2023-08-21T08:03:20;100833.06;;;27.17;62.98
21863;BME280;11096;51.338;12.524;2023-08-21T08:05:45;100835.09;;;27.15;62.63
21863;BME280;11096;51.338;12.524;2023-08-21T08:08:11;100828.22;;;26.93;62.97
21863;BME280;11096;51.338;12.524;2023-08-21T08:10:40;100832.03;;;26.84;63.37
21863;BME280;11096;51.338;12.524;2023-08-21T08:13:06;100837.66;;;26.67;64.19
21863;BME280;11096;51.338;12.524;2023-08-21T08:15:32;100827.47;;;26.49;65.93
21863;BME280;11096;51.338;12.524;2023-08-21T08:17:59;100823.34;;;26.68;65.63
21863;BME280;11096;51.338;12.524;2023-08-21T08:20:24;100827.63;;;26.69;65.54
21863;BME280;11096;51.338;12.524;2023-08-21T08:22:50;100807.91;;;27.33;64.18
21863;BME280;11096;51.338;12.524;2023-08-21T08:25:15;100810.75;;;28.07;62.32
21863;BME280;11096;51.338;12.524;2023-08-21T08:27:40;100808.69;;;28.35;62.74
21863;BME280;11096;51.338;12.524;2023-08-21T08:30:06;100817.06;;;29.50;61.67
21863;BME280;11096;51.338;12.524;2023-08-21T08:32:32;100814.28;;;29.32;60.64
21863;BME280;11096;51.338;12.524;2023-08-21T08:34:57;100804.47;;;29.89;58.37
21863;BME280;11096;51.338;12.524;2023-08-21T08:37:23;100800.47;;;30.05;55.19
21863;BME280;11096;51.338;12.524;2023-08-21T08:39:48;100802.66;;;30.40;54.88
21863;BME280;11096;51.338;12.524;2023-08-21T08:42:15;100795.22;;;31.16;53.03
21863;BME280;11096;51.338;12.524;2023-08-21T08:44:42;100803.22;;;31.22;51.99
21863;BME280;11096;51.338;12.524;2023-08-21T08:47:09;100794.66;;;31.74;50.04
21863;BME280;11096;51.338;12.524;2023-08-21T08:49:35;100791.88;;;31.81;48.63
21863;BME280;11096;51.338;12.524;2023-08-21T08:52:01;100795.28;;;31.46;50.26
21863;BME280;11096;51.338;12.524;2023-08-21T08:54:27;100793.94;;;31.67;47.97
21863;BME280;11096;51.338;12.524;2023-08-21T08:56:53;100794.53;;;31.69;46.73
21863;BME280;11096;51.338;12.524;2023-08-21T08:59:19;100796.41;;;32.22;46.42
21863;BME280;11096;51.338;12.524;2023-08-21T09:01:44;100789.16;;;32.11;46.19
21863;BME280;11096;51.338;12.524;2023-08-21T09:04:10;100789.72;;;32.48;45.83
21863;BME280;11096;51.338;12.524;2023-08-21T09:06:36;100781.50;;;32.90;44.03
21863;BME280;11096;51.338;12.524;2023-08-21T09:09:01;100775.91;;;32.80;44.32
21863;BME280;11096;51.338;12.524;2023-08-21T09:11:27;100775.34;;;33.19;42.89
21863;BME280;11096;51.338;12.524;2023-08-21T09:13:54;100776.88;;;33.43;42.26
21863;BME280;11096;51.338;12.524;2023-08-21T09:16:20;100781.09;;;33.39;42.09
21863;BME280;11096;51.338;12.524;2023-08-21T09:18:50;100774.75;;;32.76;42.79
21863;BME280;11096;51.338;12.524;2023-08-21T09:21:19;100774.78;;;33.17;42.90
21863;BME280;11096;51.338;12.524;2023-08-21T09:23:45;100779.56;;;33.14;42.13
21863;BME280;11096;51.338;12.524;2023-08-21T09:26:20;100786.28;;;33.41;42.52
21863;BME280;11096;51.338;12.524;2023-08-21T09:28:50;100774.34;;;33.82;42.08
21863;BME280;11096;51.338;12.524;2023-08-21T09:31:16;100773.59;;;33.87;41.68
21863;BME280;11096;51.338;12.524;2023-08-21T09:33:55;100773.59;;;33.70;41.46
21863;BME280;11096;51.338;12.524;2023-08-21T09:36:21;100769.81;;;34.38;40.65
21863;BME280;11096;51.338;12.524;2023-08-21T09:38:47;100775.41;;;34.32;40.58
21863;BME280;11096;51.338;12.524;2023-08-21T09:41:13;100776.78;;;34.73;39.37
21863;BME280;11096;51.338;12.524;2023-08-21T09:43:41;100772.09;;;35.35;37.87
21863;BME280;11096;51.338;12.524;2023-08-21T09:46:08;100772.50;;;34.77;39.05
21863;BME280;11096;51.338;12.524;2023-08-21T09:48:34;100763.00;;;35.46;37.39
21863;BME280;11096;51.338;12.524;2023-08-21T09:51:00;100769.22;;;35.46;37.83
21863;BME280;11096;51.338;12.524;2023-08-21T09:53:29;100758.56;;;39.53;32.90
21863;BME280;11096;51.338;12.524;2023-08-21T09:55:55;100756.66;;;36.32;35.14
21863;BME280;11096;51.338;12.524;2023-08-21T09:58:21;100755.25;;;39.61;31.70
21863;BME280;11096;51.338;12.524;2023-08-21T10:00:49;100752.66;;;40.04;30.57
21863;BME280;11096;51.338;12.524;2023-08-21T10:03:19;100749.44;;;40.50;30.10
21863;BME280;11096;51.338;12.524;2023-08-21T10:05:47;100750.63;;;41.25;29.04
21863;BME280;11096;51.338;12.524;2023-08-21T10:08:15;100741.41;;;41.86;27.93
21863;BME280;11096;51.338;12.524;2023-08-21T10:10:41;100739.31;;;42.11;27.93
21863;BME280;11096;51.338;12.524;2023-08-21T10:13:07;100734.81;;;43.43;26.70
21863;BME280;11096;51.338;12.524;2023-08-21T10:15:33;100732.41;;;44.87;24.05
21863;BME280;11096;51.338;12.524;2023-08-21T10:20:43;100709.50;;;46.84;20.96
21863;BME280;11096;51.338;12.524;2023-08-21T10:23:09;100714.03;;;49.57;19.29
21863;BME280;11096;51.338;12.524;2023-08-21T10:25:41;100711.38;;;47.13;21.58
21863;BME280;11096;51.338;12.524;2023-08-21T10:28:06;100708.03;;;44.60;23.29
21863;BME280;11096;51.338;12.524;2023-08-21T10:30:32;100707.34;;;45.50;21.93
21863;BME280;11096;51.338;12.524;2023-08-21T10:32:59;100714.13;;;47.46;20.98
21863;BME280;11096;51.338;12.524;2023-08-21T10:35:29;100703.22;;;44.56;22.49
21863;BME280;11096;51.338;12.524;2023-08-21T10:38:16;100694.75;;;44.27;23.32
21863;BME280;11096;51.338;12.524;2023-08-21T10:41:07;100695.91;;;44.34;22.75
21863;BME280;11096;51.338;12.524;2023-08-21T10:43:40;100699.84;;;44.94;22.30
21863;BME280;11096;51.338;12.524;2023-08-21T10:46:07;100698.47;;;41.45;25.86
21863;BME280;11096;51.338;12.524;2023-08-21T10:48:33;100708.31;;;39.45;28.99
21863;BME280;11096;51.338;12.524;2023-08-21T10:51:01;100696.53;;;39.55;27.98
21863;BME280;11096;51.338;12.524;2023-08-21T10:53:27;100699.25;;;39.20;28.52
21863;BME280;11096;51.338;12.524;2023-08-21T10:55:57;100695.84;;;39.04;27.68
21863;BME280;11096;51.338;12.524;2023-08-21T10:58:23;100702.19;;;39.92;26.56
21863;BME280;11096;51.338;12.524;2023-08-21T11:00:58;100707.72;;;38.64;27.75
21863;BME280;11096;51.338;12.524;2023-08-21T11:03:24;100696.50;;;40.37;25.43
21863;BME280;11096;51.338;12.524;2023-08-21T11:06:07;100702.72;;;40.62;26.63
21863;BME280;11096;51.338;12.524;2023-08-21T11:08:33;100698.16;;;43.07;24.29
21863;BME280;11096;51.338;12.524;2023-08-21T11:11:01;100698.31;;;44.19;22.32
21863;BME280;11096;51.338;12.524;2023-08-21T11:13:27;100698.50;;;43.28;23.16
21863;BME280;11096;51.338;12.524;2023-08-21T11:15:58;100694.50;;;43.57;22.01
21863;BME280;11096;51.338;12.524;2023-08-21T11:18:33;100691.03;;;43.43;22.88
21863;BME280;11096;51.338;12.524;2023-08-21T11:21:05;100703.22;;;46.62;20.81
21863;BME280;11096;51.338;12.524;2023-08-21T11:23:35;100694.59;;;45.45;20.93
21863;BME280;11096;51.338;12.524;2023-08-21T11:26:02;100688.09;;;44.02;21.70
21863;BME280;11096;51.338;12.524;2023-08-21T11:28:28;100687.06;;;46.10;19.64
21863;BME280;11096;51.338;12.524;2023-08-21T11:30:55;100690.03;;;48.70;18.67
21863;BME280;11096;51.338;12.524;2023-08-21T11:33:20;100679.31;;;49.56;16.49
21863;BME280;11096;51.338;12.524;2023-08-21T11:35:46;100681.38;;;47.32;18.19
21863;BME280;11096;51.338;12.524;2023-08-21T11:38:30;100683.72;;;50.09;16.61
21863;BME280;11096;51.338;12.524;2023-08-21T11:41:00;100686.69;;;50.00;17.22
21863;BME280;11096;51.338;12.524;2023-08-21T11:43:39;100673.00;;;48.40;17.88
21863;BME280;11096;51.338;12.524;2023-08-21T11:46:05;100676.47;;;45.53;20.33
21863;BME280;11096;51.338;12.524;2023-08-21T11:48:31;100670.63;;;47.77;18.30
21863;BME280;11096;51.338;12.524;2023-08-21T11:50:57;100670.69;;;47.43;18.77
21863;BME280;11096;51.338;12.524;2023-08-21T11:53:37;100663.41;;;44.68;19.59
21863;BME280;11096;51.338;12.524;2023-08-21T11:56:14;100679.28;;;46.63;19.74
21863;BME280;11096;51.338;12.524;2023-08-21T11:58:40;100675.75;;;49.40;16.93
21863;BME280;11096;51.338;12.524;2023-08-21T12:01:06;100672.50;;;50.56;16.58
21863;BME280;11096;51.338;12.524;2023-08-21T12:03:39;100666.94;;;47.02;19.35
21863;BME280;11096;51.338;12.524;2023-08-21T12:06:13;100672.31;;;48.99;16.79
21863;BME280;11096;51.338;12.524;2023-08-21T12:08:39;100664.53;;;44.41;21.36
21863;BME280;11096;51.338;12.524;2023-08-21T12:11:06;100678.03;;;45.24;21.62
21863;BME280;11096;51.338;12.524;2023-08-21T12:13:32;100664.66;;;45.05;22.00
21863;BME280;11096;51.338;12.524;2023-08-21T12:15:58;100669.53;;;46.23;19.97
21863;BME280;11096;51.338;12.524;2023-08-21T12:18:23;100661.50;;;46.60;18.48
21863;BME280;11096;51.338;12.524;2023-08-21T12:20:49;100666.91;;;49.18;17.56
21863;BME280;11096;51.338;12.524;2023-08-21T12:23:14;100668.22;;;50.39;16.07
21863;BME280;11096;51.338;12.524;2023-08-21T12:25:40;100656.75;;;48.78;18.23
21863;BME280;11096;51.338;12.524;2023-08-21T12:28:07;100668.47;;;49.63;16.97
21863;BME280;11096;51.338;12.524;2023-08-21T12:30:33;100655.94;;;51.45;16.02
21863;BME280;11096;51.338;12.524;2023-08-21T12:32:59;100666.19;;;46.81;19.55
21863;BME280;11096;51.338;12.524;2023-08-21T12:35:24;100655.75;;;46.02;20.15
21863;BME280;11096;51.338;12.524;2023-08-21T12:37:49;100651.84;;;47.08;19.12
21863;BME280;11096;51.338;12.524;2023-08-21T12:40:15;100655.34;;;47.30;18.88
21863;BME280;11096;51.338;12.524;2023-08-21T12:42:40;100661.31;;;47.44;19.18